createdAt,value
2023-02-03T00:02:00.018Z,102343.22
2023-02-03T00:04:28.716Z,102334.19
2023-02-03T00:06:58.841Z,102324.16
2023-02-03T00:09:26.003Z,102317.25
2023-02-03T00:11:53.054Z,102327.34
2023-02-03T00:14:20.368Z,102315.28
2023-02-03T00:16:47.505Z,102308.47
2023-02-03T00:19:15.937Z,102303.59
2023-02-03T00:21:44.165Z,102307.75
2023-02-03T00:24:11.331Z,102301.38
2023-02-03T00:26:42.635Z,102304.13
2023-02-03T00:29:09.769Z,102290.34
2023-02-03T00:31:36.992Z,102303.41
2023-02-03T00:34:05.834Z,102304.97
2023-02-03T00:36:33.123Z,102304.16
2023-02-03T00:39:01.508Z,102293.09
2023-02-03T00:41:31.808Z,102306.50
2023-02-03T00:43:59.043Z,102309.50
2023-02-03T00:46:26.189Z,102310.81
2023-02-03T00:48:53.051Z,102320.88
2023-02-03T00:51:21.625Z,102326.50
2023-02-03T00:53:49.117Z,102325.25
2023-02-03T00:56:16.473Z,102329.94
2023-02-03T00:58:44.534Z,102331.66
2023-02-03T01:01:12.911Z,102351.72
2023-02-03T01:03:40.276Z,102348.53
2023-02-03T01:06:19.209Z,102348.78
2023-02-03T01:08:47.516Z,102349.50
2023-02-03T01:11:19.987Z,102369.50
2023-02-03T01:13:49.126Z,102368.59
2023-02-03T01:16:18.841Z,102381.03
2023-02-03T01:18:46.205Z,102383.66
2023-02-03T01:21:18.819Z,102378.38
2023-02-03T01:23:46.576Z,102369.84
2023-02-03T01:26:15.431Z,102369.03
2023-02-03T01:28:42.472Z,102367.41
2023-02-03T01:31:21.471Z,102358.88
2023-02-03T01:33:48.774Z,102366.44
2023-02-03T01:36:16.656Z,102371.75
2023-02-03T01:38:44.845Z,102375.53
2023-02-03T01:41:14.818Z,102386.66
2023-02-03T01:43:45.220Z,102374.53
2023-02-03T01:46:48.426Z,102385.97
2023-02-03T01:49:19.857Z,102393.28
2023-02-03T01:51:47.084Z,102400.00
2023-02-03T01:54:16.136Z,102379.84
2023-02-03T01:56:46.287Z,102387.81
2023-02-03T01:59:13.688Z,102379.25
2023-02-03T02:01:41.225Z,102385.56
2023-02-03T02:04:08.466Z,102374.00
2023-02-03T02:06:35.266Z,102371.19
2023-02-03T02:09:02.316Z,102376.13
2023-02-03T02:11:29.499Z,102372.22
2023-02-03T02:14:00.701Z,102379.72
2023-02-03T02:16:47.661Z,102373.47
2023-02-03T02:19:52.330Z,102375.19
2023-02-03T02:22:22.092Z,102376.06
2023-02-03T02:25:00.641Z,102373.31
2023-02-03T02:27:49.187Z,102362.63
2023-02-03T02:30:53.678Z,102357.22
2023-02-03T02:33:50.762Z,102359.16
2023-02-03T02:36:34.829Z,102333.84
2023-02-03T02:39:10.552Z,102338.38
2023-02-03T02:41:48.144Z,102339.38
2023-02-03T02:44:33.744Z,102343.69
2023-02-03T02:47:07.442Z,102336.41
2023-02-03T02:49:45.081Z,102337.81
2023-02-03T02:52:14.443Z,102327.66
2023-02-03T02:54:44.867Z,102329.31
2023-02-03T02:57:14.133Z,102320.56
2023-02-03T02:59:40.948Z,102327.88
2023-02-03T03:02:10.265Z,102325.13
2023-02-03T03:04:40.064Z,102333.06
2023-02-03T03:07:10.870Z,102342.41
2023-02-03T03:09:47.661Z,102353.72
2023-02-03T03:12:21.586Z,102360.09
2023-02-03T03:15:01.702Z,102359.03
2023-02-03T03:17:31.607Z,102344.53
2023-02-03T03:20:02.320Z,102338.75
2023-02-03T03:22:35.230Z,102348.31
2023-02-03T03:25:07.272Z,102357.59
2023-02-03T03:27:38.400Z,102360.41
2023-02-03T03:30:21.868Z,102355.06
2023-02-03T03:32:49.465Z,102358.84
2023-02-03T03:35:16.411Z,102370.44
2023-02-03T03:37:50.671Z,102368.53
2023-02-03T03:40:21.976Z,102358.41
2023-02-03T03:42:53.040Z,102364.53
2023-02-03T03:45:32.292Z,102372.09
2023-02-03T03:48:05.327Z,102377.22
2023-02-03T03:50:35.457Z,102363.88
2023-02-03T03:53:02.881Z,102382.59
2023-02-03T03:55:31.726Z,102371.66
2023-02-03T03:58:11.197Z,102377.16
2023-02-03T04:00:40.211Z,102376.81
2023-02-03T04:03:23.762Z,102363.28
2023-02-03T04:05:51.129Z,102349.16
2023-02-03T04:08:17.933Z,102340.25
2023-02-03T04:10:44.778Z,102338.34
2023-02-03T04:13:12.897Z,102332.91
2023-02-03T04:15:39.688Z,102340.69
2023-02-03T04:18:06.707Z,102341.75
2023-02-03T04:20:33.689Z,102350.63
2023-02-03T04:23:00.726Z,102346.88
2023-02-03T04:25:27.672Z,102344.34
2023-02-03T04:27:55.118Z,102336.81
2023-02-03T04:30:22.329Z,102328.00
2023-02-03T04:32:49.571Z,102332.91
2023-02-03T04:35:16.761Z,102333.31
2023-02-03T04:37:44.436Z,102344.47
2023-02-03T04:40:12.105Z,102342.50
2023-02-03T04:42:40.274Z,102341.47
2023-02-03T04:45:08.797Z,102339.06
2023-02-03T04:47:35.522Z,102336.78
2023-02-03T04:50:02.686Z,102342.47
2023-02-03T04:52:29.455Z,102339.88
2023-02-03T04:54:56.192Z,102340.94
2023-02-03T04:57:23.147Z,102342.19
2023-02-03T04:59:50.076Z,102345.94
2023-02-03T05:02:16.841Z,102349.34
2023-02-03T05:04:43.841Z,102352.97
2023-02-03T05:07:10.758Z,102367.00
2023-02-03T05:09:37.476Z,102371.75
2023-02-03T05:12:04.349Z,102362.72
2023-02-03T05:14:31.111Z,102364.38
2023-02-03T05:16:57.903Z,102361.25
2023-02-03T05:19:24.646Z,102371.31
2023-02-03T05:21:52.078Z,102370.50
2023-02-03T05:24:18.812Z,102374.06
2023-02-03T05:26:45.523Z,102368.75
2023-02-03T05:29:12.264Z,102358.22
2023-02-03T05:31:39.079Z,102351.22
2023-02-03T05:34:05.951Z,102354.78
2023-02-03T05:36:32.705Z,102353.00
2023-02-03T05:38:59.503Z,102354.34
2023-02-03T05:41:44.765Z,102349.50
2023-02-03T05:44:11.690Z,102352.84
2023-02-03T05:46:39.277Z,102361.13
2023-02-03T05:49:06.174Z,102373.84
2023-02-03T05:51:33.017Z,102379.94
2023-02-03T05:53:59.919Z,102376.47
2023-02-03T05:56:27.069Z,102386.16
2023-02-03T05:58:53.979Z,102395.00
2023-02-03T06:01:21.480Z,102376.75
2023-02-03T06:03:48.677Z,102400.16
2023-02-03T06:06:15.836Z,102398.69
2023-02-03T06:08:43.269Z,102387.56
2023-02-03T06:11:11.451Z,102392.28
2023-02-03T06:13:38.603Z,102397.22
2023-02-03T06:16:05.538Z,102383.34
2023-02-03T06:18:32.414Z,102386.41
2023-02-03T06:20:59.542Z,102373.47
2023-02-03T06:23:26.631Z,102382.13
2023-02-03T06:25:54.070Z,102381.31
2023-02-03T06:28:21.116Z,102386.22
2023-02-03T06:30:53.339Z,102382.66
2023-02-03T06:33:20.610Z,102379.44
2023-02-03T06:35:47.521Z,102378.78
2023-02-03T06:38:14.277Z,102374.56
2023-02-03T06:40:41.748Z,102380.53
2023-02-03T06:43:08.699Z,102383.78
2023-02-03T06:45:35.499Z,102385.78
2023-02-03T06:48:02.191Z,102389.41
2023-02-03T06:50:29.340Z,102385.88
2023-02-03T06:52:56.722Z,102385.78
2023-02-03T06:55:23.574Z,102384.81
2023-02-03T06:57:52.086Z,102401.91
2023-02-03T07:00:19.692Z,102405.50
2023-02-03T07:02:47.014Z,102392.06
2023-02-03T07:05:14.033Z,102396.59
2023-02-03T07:07:41.025Z,102389.00
2023-02-03T07:10:08.420Z,102392.31
2023-02-03T07:12:36.673Z,102392.97
2023-02-03T07:15:07.319Z,102392.59
2023-02-03T07:17:34.175Z,102403.25
2023-02-03T07:20:00.950Z,102392.63
2023-02-03T07:22:28.042Z,102389.75
2023-02-03T07:24:54.879Z,102360.47
2023-02-03T07:27:29.467Z,102358.69
2023-02-03T07:29:56.687Z,102354.25
2023-02-03T07:32:23.544Z,102353.97
2023-02-03T07:34:50.379Z,102349.63
2023-02-03T07:37:17.159Z,102376.03
2023-02-03T07:39:44.178Z,102371.97
2023-02-03T07:42:11.093Z,102388.22
2023-02-03T07:44:43.750Z,102390.19
2023-02-03T07:47:12.462Z,102402.66
2023-02-03T07:49:39.396Z,102412.50
2023-02-03T07:52:06.233Z,102401.75
2023-02-03T07:54:33.101Z,102417.88
2023-02-03T07:57:01.404Z,102414.06
2023-02-03T07:59:31.279Z,102425.91
2023-02-03T08:01:58.268Z,102426.25
2023-02-03T08:04:25.125Z,102422.56
2023-02-03T08:06:51.966Z,102414.63
2023-02-03T08:09:18.823Z,102431.94
2023-02-03T08:11:45.620Z,102428.75
2023-02-03T08:14:12.278Z,102431.91
2023-02-03T08:16:39.035Z,102411.22
2023-02-03T08:19:05.851Z,102410.44
2023-02-03T08:21:32.644Z,102441.38
2023-02-03T08:23:59.369Z,102448.34
2023-02-03T08:26:26.121Z,102448.94
2023-02-03T08:28:53.144Z,102448.34
2023-02-03T08:31:20.032Z,102446.53
2023-02-03T08:33:46.874Z,102438.38
2023-02-03T08:36:14.091Z,102446.59
2023-02-03T08:38:41.886Z,102426.84
2023-02-03T08:41:10.768Z,102441.69
2023-02-03T08:43:37.677Z,102411.91
2023-02-03T08:46:05.741Z,102432.72
2023-02-03T08:48:34.457Z,102444.06
2023-02-03T08:51:01.327Z,102462.16
2023-02-03T08:53:28.109Z,102447.88
2023-02-03T08:55:56.555Z,102434.31
2023-02-03T08:58:23.835Z,102439.34
2023-02-03T09:00:53.292Z,102448.94
2023-02-03T09:03:20.221Z,102447.59
2023-02-03T09:05:47.020Z,102441.25
2023-02-03T09:08:13.814Z,102460.78
2023-02-03T09:10:41.415Z,102478.72
2023-02-03T09:13:08.201Z,102479.25
2023-02-03T09:15:35.061Z,102485.84
2023-02-03T09:18:01.794Z,102485.94
2023-02-03T09:20:29.540Z,102510.66
2023-02-03T09:22:59.624Z,102500.41
2023-02-03T09:25:26.492Z,102498.88
2023-02-03T09:27:53.359Z,102518.56
2023-02-03T09:30:20.652Z,102515.94
2023-02-03T09:32:54.007Z,102526.59
2023-02-03T09:35:21.326Z,102503.88
2023-02-03T09:37:49.103Z,102498.22
2023-02-03T09:40:23.358Z,102505.53
2023-02-03T09:43:03.403Z,102508.31
2023-02-03T09:45:30.996Z,102508.88
2023-02-03T09:48:03.661Z,102507.22
2023-02-03T09:50:33.255Z,102521.16
2023-02-03T09:53:06.167Z,102495.44
2023-02-03T09:55:46.327Z,102496.66
2023-02-03T09:58:23.104Z,102510.22
2023-02-03T10:00:51.178Z,102510.09
2023-02-03T10:03:25.865Z,102502.50
2023-02-03T10:06:11.134Z,102511.09
2023-02-03T10:09:07.851Z,102494.75
2023-02-03T10:11:53.020Z,102490.13
2023-02-03T10:14:46.698Z,102495.91
2023-02-03T10:17:37.868Z,102502.44
2023-02-03T10:20:21.996Z,102486.50
2023-02-03T10:22:51.971Z,102492.13
2023-02-03T10:25:28.133Z,102488.47
2023-02-03T10:27:58.618Z,102500.63
2023-02-03T10:30:28.344Z,102511.06
2023-02-03T10:32:57.969Z,102498.75
2023-02-03T10:35:32.082Z,102507.53
2023-02-03T10:37:59.827Z,102518.38
2023-02-03T10:40:29.335Z,102513.66
2023-02-03T10:43:15.740Z,102515.63
2023-02-03T10:45:42.659Z,102518.66
2023-02-03T10:48:14.099Z,102525.19
2023-02-03T10:50:46.004Z,102524.41
2023-02-03T10:53:20.567Z,102539.34
2023-02-03T10:55:49.957Z,102534.88
2023-02-03T10:58:27.550Z,102535.00
2023-02-03T11:01:08.391Z,102549.00
2023-02-03T11:03:35.473Z,102546.38
2023-02-03T11:06:16.824Z,102555.25
2023-02-03T11:08:48.226Z,102561.03
2023-02-03T11:11:22.816Z,102543.84
2023-02-03T11:14:03.037Z,102552.06
2023-02-03T11:16:31.028Z,102550.50
2023-02-03T11:18:59.276Z,102543.28
2023-02-03T11:21:38.454Z,102544.19
2023-02-03T11:24:24.483Z,102548.81
2023-02-03T11:26:58.623Z,102542.44
2023-02-03T11:29:28.330Z,102548.59
2023-02-03T11:31:57.484Z,102531.59
2023-02-03T11:34:30.143Z,102512.44
2023-02-03T11:36:57.916Z,102520.16
2023-02-03T11:39:29.493Z,102522.91
2023-02-03T11:41:56.716Z,102520.59
2023-02-03T11:44:29.479Z,102520.88
2023-02-03T11:47:00.335Z,102503.03
2023-02-03T11:50:05.659Z,102524.81
2023-02-03T11:52:53.671Z,102517.84
2023-02-03T11:55:32.837Z,102515.91
2023-02-03T11:58:08.641Z,102522.16
2023-02-03T12:00:51.216Z,102522.97
2023-02-03T12:03:40.307Z,102524.09
2023-02-03T12:06:15.819Z,102534.00
2023-02-03T12:09:01.486Z,102529.25
2023-02-03T12:11:56.833Z,102537.06
2023-02-03T12:14:46.191Z,102546.31
2023-02-03T12:17:23.753Z,102548.34
2023-02-03T12:20:05.822Z,102532.50
2023-02-03T12:23:11.576Z,102540.91
2023-02-03T12:26:16.081Z,102545.72
2023-02-03T12:28:56.952Z,102552.81
2023-02-03T12:31:29.498Z,102554.31
2023-02-03T12:34:03.674Z,102529.69
2023-02-03T12:36:35.370Z,102539.38
2023-02-03T12:39:25.252Z,102545.81
2023-02-03T12:42:02.039Z,102546.06
2023-02-03T12:44:47.549Z,102545.19
2023-02-03T12:47:29.515Z,102542.47
2023-02-03T12:50:21.852Z,102551.53
2023-02-03T12:53:17.847Z,102537.78
2023-02-03T12:55:50.860Z,102529.00
2023-02-03T12:58:26.790Z,102534.34
2023-02-03T13:01:05.065Z,102539.75
2023-02-03T13:03:34.749Z,102544.31
2023-02-03T13:06:12.926Z,102544.97
2023-02-03T13:08:44.524Z,102530.69
2023-02-03T13:11:25.041Z,102542.09
2023-02-03T13:13:57.478Z,102527.84
2023-02-03T13:16:33.312Z,102529.25
2023-02-03T13:19:06.034Z,102506.94
2023-02-03T13:21:33.023Z,102506.41
2023-02-03T13:23:59.937Z,102517.44
2023-02-03T13:26:43.521Z,102510.69
2023-02-03T13:29:48.038Z,102526.78
2023-02-03T13:32:34.473Z,102525.44
2023-02-03T13:35:05.878Z,102507.91
2023-02-03T13:37:55.039Z,102513.03
2023-02-03T13:40:40.512Z,102515.56
2023-02-03T13:43:14.189Z,102515.75
2023-02-03T13:45:46.852Z,102521.69
2023-02-03T13:48:18.968Z,102534.59
2023-02-03T13:50:46.687Z,102532.00
2023-02-03T13:53:23.860Z,102527.53
2023-02-03T13:55:59.215Z,102531.13
2023-02-03T13:58:25.848Z,102536.50
2023-02-03T14:00:52.674Z,102525.31
2023-02-03T14:03:39.584Z,102519.88
2023-02-03T14:06:38.815Z,102518.97
2023-02-03T14:09:30.564Z,102529.50
2023-02-03T14:12:15.761Z,102522.59
2023-02-03T14:15:04.886Z,102523.81
2023-02-03T14:17:34.637Z,102538.91
2023-02-03T14:20:04.620Z,102537.06
2023-02-03T14:22:31.827Z,102547.34
2023-02-03T14:25:06.000Z,102543.22
2023-02-03T14:27:32.864Z,102546.19
2023-02-03T14:30:17.925Z,102546.28
2023-02-03T14:32:53.864Z,102549.34
2023-02-03T14:35:42.495Z,102554.34
2023-02-03T14:38:14.485Z,102548.94
2023-02-03T14:40:57.020Z,102552.94
2023-02-03T14:43:26.689Z,102552.31
2023-02-03T14:46:31.223Z,102562.00
2023-02-03T14:48:58.125Z,102562.94
2023-02-03T14:51:58.328Z,102564.25
2023-02-03T14:54:38.404Z,102561.06
2023-02-03T14:57:18.500Z,102560.88
2023-02-03T14:59:54.309Z,102578.00
2023-02-03T15:02:25.474Z,102563.47
2023-02-03T15:05:13.168Z,102558.06
2023-02-03T15:07:52.455Z,102566.47
2023-02-03T15:10:24.998Z,102564.47
2023-02-03T15:12:53.752Z,102571.34
2023-02-03T15:15:32.138Z,102578.38
2023-02-03T15:18:00.819Z,102571.97
2023-02-03T15:20:40.537Z,102584.00
2023-02-03T15:23:27.962Z,102578.03
2023-02-03T15:25:56.783Z,102561.84
2023-02-03T15:28:25.026Z,102575.72
2023-02-03T15:30:58.536Z,102570.53
2023-02-03T15:33:25.460Z,102574.50
2023-02-03T15:35:56.735Z,102584.22
2023-02-03T15:38:29.943Z,102590.47
2023-02-03T15:40:58.944Z,102596.75
2023-02-03T15:43:32.981Z,102592.47
2023-02-03T15:46:19.700Z,102599.03
2023-02-03T15:49:04.283Z,102591.88
2023-02-03T15:51:35.029Z,102594.13
2023-02-03T15:54:33.262Z,102606.25
2023-02-03T15:57:05.351Z,102595.66
2023-02-03T15:59:44.184Z,102611.41
2023-02-03T16:02:25.801Z,102601.28
2023-02-03T16:04:53.225Z,102598.72
2023-02-03T16:07:28.812Z,102616.25
2023-02-03T16:09:57.329Z,102607.97
2023-02-03T16:12:28.935Z,102610.88
2023-02-03T16:14:56.645Z,102609.88
2023-02-03T16:17:34.921Z,102622.59
2023-02-03T16:20:20.956Z,102620.69
2023-02-03T16:23:01.988Z,102633.09
2023-02-03T16:25:32.288Z,102638.22
2023-02-03T16:28:32.600Z,102635.69
2023-02-03T16:31:50.586Z,102637.09
2023-02-03T16:34:37.885Z,102639.28
2023-02-03T16:37:42.390Z,102648.25
2023-02-03T16:40:29.730Z,102658.41
2023-02-03T16:43:15.190Z,102654.63
2023-02-03T16:46:00.628Z,102657.25
2023-02-03T16:48:46.304Z,102653.94
2023-02-03T16:51:17.777Z,102671.34
2023-02-03T16:53:46.044Z,102660.31
2023-02-03T16:56:13.608Z,102656.63
2023-02-03T16:58:40.751Z,102669.91
2023-02-03T17:01:10.738Z,102663.53
2023-02-03T17:03:38.004Z,102670.16
2023-02-03T17:06:09.741Z,102678.44
2023-02-03T17:08:38.325Z,102672.34
2023-02-03T17:11:17.352Z,102671.63
2023-02-03T17:13:45.017Z,102673.22
2023-02-03T17:16:17.249Z,102672.94
2023-02-03T17:18:45.803Z,102684.84
2023-02-03T17:21:17.414Z,102686.31
2023-02-03T17:23:44.265Z,102683.41
2023-02-03T17:26:11.167Z,102684.09
2023-02-03T17:28:42.019Z,102684.97
2023-02-03T17:31:13.558Z,102675.81
2023-02-03T17:33:40.652Z,102680.41
2023-02-03T17:36:12.992Z,102687.03
2023-02-03T17:55:16.674Z,102713.56
2023-02-03T17:57:43.391Z,102724.97
2023-02-03T18:00:10.732Z,102725.31
2023-02-03T18:02:40.605Z,102727.88
2023-02-03T18:05:07.680Z,102744.47
2023-02-03T18:07:34.534Z,102753.06
2023-02-03T18:10:01.535Z,102759.63
2023-02-03T18:12:28.531Z,102763.03
2023-02-03T18:14:56.648Z,102755.22
2023-02-03T18:17:24.281Z,102745.13
2023-02-03T18:19:55.704Z,102743.53
2023-02-03T18:22:23.266Z,102753.91
2023-02-03T18:24:52.963Z,102756.44
2023-02-03T18:27:19.874Z,102757.38
2023-02-03T18:29:48.125Z,102758.09
2023-02-03T18:32:16.502Z,102759.16
2023-02-03T18:34:43.679Z,102763.06
2023-02-03T18:37:12.260Z,102769.91
2023-02-03T18:39:39.120Z,102762.09
2023-02-03T18:42:07.672Z,102769.47
2023-02-03T18:44:48.033Z,102770.50
2023-02-03T18:47:20.230Z,102773.44
2023-02-03T18:50:32.791Z,102778.50
2023-02-03T18:53:00.328Z,102768.13
2023-02-03T18:55:27.185Z,102779.34
2023-02-03T18:57:54.047Z,102778.53
2023-02-03T19:00:21.122Z,102792.88
2023-02-03T19:02:50.190Z,102789.97
2023-02-03T19:05:18.712Z,102789.81
2023-02-03T19:07:45.507Z,102792.75
2023-02-03T19:10:12.501Z,102792.28
2023-02-03T19:12:39.466Z,102800.25
2023-02-03T19:15:06.713Z,102799.63
2023-02-03T19:17:33.572Z,102803.53
2023-02-03T19:20:00.275Z,102786.59
2023-02-03T19:22:27.396Z,102799.03
2023-02-03T19:24:54.651Z,102794.50
2023-02-03T19:27:22.209Z,102796.28
2023-02-03T19:29:48.985Z,102797.97
2023-02-03T19:32:17.125Z,102792.97
2023-02-03T19:34:44.072Z,102793.00
2023-02-03T19:37:10.777Z,102802.25
2023-02-03T19:39:37.658Z,102814.94
2023-02-03T19:42:04.830Z,102801.69
2023-02-03T19:44:31.639Z,102815.13
2023-02-03T19:46:58.495Z,102816.84
2023-02-03T19:49:25.552Z,102813.97
2023-02-03T19:51:52.792Z,102826.25
2023-02-03T19:54:19.792Z,102818.66
2023-02-03T19:56:46.697Z,102822.81
2023-02-03T19:59:13.581Z,102823.38
2023-02-03T20:01:40.659Z,102817.72
2023-02-03T20:04:07.923Z,102823.69
2023-02-03T20:06:35.203Z,102820.97
2023-02-03T20:09:03.547Z,102819.63
2023-02-03T20:11:30.529Z,102822.59
2023-02-03T20:13:57.334Z,102813.25
2023-02-03T20:16:24.815Z,102820.50
2023-02-03T20:18:52.075Z,102811.00
2023-02-03T20:21:19.262Z,102825.50
2023-02-03T20:23:46.252Z,102830.28
2023-02-03T20:26:14.339Z,102845.97
2023-02-03T20:28:41.446Z,102843.28
2023-02-03T20:31:08.491Z,102846.06
2023-02-03T20:33:35.510Z,102844.06
2023-02-03T20:36:02.483Z,102843.56
2023-02-03T20:38:29.760Z,102844.88
2023-02-03T20:40:57.388Z,102854.81
2023-02-03T20:43:26.824Z,102845.84
2023-02-03T20:45:54.264Z,102845.97
2023-02-03T20:48:25.806Z,102852.31
2023-02-03T20:50:53.256Z,102839.44
2023-02-03T20:53:26.166Z,102833.88
2023-02-03T20:55:57.915Z,102851.91
2023-02-03T20:58:30.974Z,102844.25
2023-02-03T21:00:59.669Z,102837.16
2023-02-03T21:03:45.637Z,102843.25
2023-02-03T21:06:20.092Z,102840.34
2023-02-03T21:08:47.919Z,102845.31
2023-02-03T21:11:19.922Z,102846.78
2023-02-03T21:13:48.134Z,102845.63
2023-02-03T21:16:21.536Z,102835.19
2023-02-03T21:18:53.327Z,102849.59
2023-02-03T21:21:44.710Z,102832.38
2023-02-03T21:24:24.734Z,102846.84
2023-02-03T21:26:55.154Z,102845.28
2023-02-03T21:29:29.399Z,102837.09
2023-02-03T21:31:56.438Z,102830.31
2023-02-03T21:34:32.603Z,102830.22
2023-02-03T21:37:09.840Z,102834.50
2023-02-03T21:39:37.633Z,102838.31
2023-02-03T21:42:41.403Z,102827.28
2023-02-03T21:45:14.563Z,102840.34
2023-02-03T21:47:44.447Z,102828.81
2023-02-03T21:50:35.069Z,102831.84
2023-02-03T21:53:07.974Z,102821.22
2023-02-03T21:55:36.177Z,102811.53
2023-02-03T21:58:12.335Z,102815.03
2023-02-03T22:00:43.508Z,102820.66
2023-02-03T22:03:28.348Z,102819.44
2023-02-03T22:06:16.814Z,102811.84
2023-02-03T22:11:35.011Z,102820.22
2023-02-03T22:14:02.080Z,102824.13
2023-02-03T22:16:31.319Z,102819.66
2023-02-03T22:24:22.087Z,102829.19
2023-02-03T22:26:55.760Z,102824.59
2023-02-03T22:29:23.670Z,102825.31
2023-02-03T22:31:51.906Z,102829.56
2023-02-03T22:34:19.613Z,102851.53
2023-02-03T22:36:46.703Z,102833.28
2023-02-03T22:39:13.720Z,102837.03
2023-02-03T22:41:40.893Z,102852.22
2023-02-03T22:44:09.022Z,102848.72
2023-02-03T22:46:37.144Z,102851.59
2023-02-03T22:49:09.296Z,102846.16
2023-02-03T22:51:41.389Z,102861.94
2023-02-03T22:56:51.041Z,102869.56
2023-02-03T22:59:18.574Z,102872.16
2023-02-03T23:01:46.369Z,102882.47
2023-02-03T23:04:13.496Z,102857.25
2023-02-03T23:06:40.562Z,102880.69
2023-02-03T23:09:08.161Z,102873.19
2023-02-03T23:11:35.420Z,102886.59
2023-02-03T23:14:02.545Z,102887.03
2023-02-03T23:16:29.581Z,102890.78
2023-02-03T23:18:56.760Z,102886.31
2023-02-03T23:21:23.779Z,102888.03
2023-02-03T23:23:51.694Z,102893.91
2023-02-03T23:26:18.925Z,102888.78
2023-02-03T23:28:45.865Z,102907.16
2023-02-03T23:31:15.553Z,102905.84
2023-02-03T23:34:06.088Z,102899.88
2023-02-03T23:36:33.720Z,102898.06
2023-02-03T23:39:00.670Z,102911.06
2023-02-03T23:41:27.795Z,102919.06
2023-02-03T23:43:54.808Z,102909.31
2023-02-03T23:46:22.033Z,102909.00
2023-02-03T23:48:48.995Z,102910.84
2023-02-03T23:51:15.938Z,102914.31
2023-02-03T23:53:42.722Z,102919.16
2023-02-03T23:56:09.986Z,102918.47
2023-02-03T23:58:37.219Z,102909.47
